createdAt,value
2022-10-12T00:00:17.848Z,14.22
2022-10-12T00:02:19.651Z,14.18
2022-10-12T00:04:21.465Z,14.19
2022-10-12T00:06:24.111Z,14.18
2022-10-12T00:08:25.612Z,14.17
2022-10-12T00:10:27.137Z,14.15
2022-10-12T00:12:28.712Z,14.12
2022-10-12T00:14:30.355Z,14.08
2022-10-12T00:16:31.871Z,14.04
2022-10-12T00:18:34.651Z,14.01
2022-10-12T00:20:36.669Z,13.99
2022-10-12T00:22:38.297Z,13.98
2022-10-12T00:24:42.853Z,13.94
2022-10-12T00:26:44.671Z,13.91
2022-10-12T00:28:47.273Z,13.89
2022-10-12T00:30:48.861Z,13.88
2022-10-12T00:32:50.405Z,13.85
2022-10-12T00:34:52.267Z,13.82
2022-10-12T00:36:55.356Z,13.80
2022-10-12T00:38:57.502Z,13.77
2022-10-12T00:40:59.119Z,13.73
2022-10-12T00:43:00.704Z,13.72
2022-10-12T00:45:02.558Z,13.71
2022-10-12T00:47:12.434Z,13.69
2022-10-12T00:49:20.613Z,13.68
2022-10-12T00:51:23.034Z,13.63
2022-10-12T00:53:28.524Z,13.61
2022-10-12T00:55:35.751Z,13.58
2022-10-12T00:57:38.118Z,13.57
2022-10-12T00:59:49.829Z,13.54
2022-10-12T01:01:51.755Z,13.51
2022-10-12T01:03:54.023Z,13.49
2022-10-12T01:05:56.108Z,13.46
2022-10-12T01:07:59.682Z,13.42
2022-10-12T01:10:02.282Z,13.42
2022-10-12T01:12:07.071Z,13.38
2022-10-12T01:14:08.794Z,13.35
2022-10-12T01:16:20.343Z,13.30
2022-10-12T01:18:33.377Z,13.28
2022-10-12T01:20:50.259Z,13.23
2022-10-12T01:23:03.849Z,13.21
2022-10-12T01:25:15.496Z,13.16
2022-10-12T01:27:33.197Z,13.13
2022-10-12T01:29:59.138Z,13.09
2022-10-12T01:32:30.106Z,13.07
2022-10-12T01:34:53.076Z,13.04
2022-10-12T01:37:08.262Z,13.00
2022-10-12T01:39:21.797Z,12.97
2022-10-12T01:41:34.620Z,12.95
2022-10-12T01:43:40.110Z,12.93
2022-10-12T01:45:41.601Z,12.89
2022-10-12T01:47:48.269Z,12.88
2022-10-12T01:49:49.901Z,12.85
2022-10-12T01:52:01.717Z,12.83
2022-10-12T01:54:26.299Z,12.79
2022-10-12T01:56:39.729Z,12.76
2022-10-12T01:59:29.064Z,12.70
2022-10-12T02:01:41.359Z,12.69
2022-10-12T02:03:50.737Z,12.67
2022-10-12T02:06:00.635Z,12.64
2022-10-12T02:08:28.253Z,12.61
2022-10-12T02:10:37.334Z,12.60
2022-10-12T02:12:40.881Z,12.59
2022-10-12T02:14:47.295Z,12.55
2022-10-12T02:16:54.266Z,12.54
2022-10-12T02:18:57.762Z,12.52
2022-10-12T02:21:00.849Z,12.51
2022-10-12T02:23:03.440Z,12.49
2022-10-12T02:25:09.339Z,12.47
2022-10-12T02:27:14.199Z,12.45
2022-10-12T02:29:20.666Z,12.43
2022-10-12T02:31:47.639Z,12.39
2022-10-12T02:34:00.216Z,12.36
2022-10-12T02:36:19.476Z,12.32
2022-10-12T02:38:47.008Z,12.29
2022-10-12T02:40:55.105Z,12.26
2022-10-12T02:43:10.323Z,12.24
2022-10-12T02:45:14.001Z,12.25
2022-10-12T02:47:18.005Z,12.23
2022-10-12T02:49:22.329Z,12.22
2022-10-12T02:51:24.985Z,12.23
2022-10-12T02:53:29.096Z,12.22
2022-10-12T02:55:31.961Z,12.19
2022-10-12T02:57:33.646Z,12.16
2022-10-12T02:59:35.225Z,12.16
2022-10-12T03:01:36.844Z,12.13
2022-10-12T03:03:41.276Z,12.13
2022-10-12T03:05:42.877Z,12.11
2022-10-12T03:07:44.396Z,12.07
2022-10-12T03:09:46.054Z,12.05
2022-10-12T03:11:48.104Z,12.03
2022-10-12T03:13:53.850Z,11.99
2022-10-12T03:16:02.040Z,11.97
2022-10-12T03:18:04.103Z,11.96
2022-10-12T03:20:06.457Z,11.93
2022-10-12T03:22:08.417Z,11.91
2022-10-12T03:24:10.382Z,11.90
2022-10-12T03:26:12.360Z,11.88
2022-10-12T03:28:14.034Z,11.85
2022-10-12T03:30:15.944Z,11.85
2022-10-12T03:32:17.989Z,11.82
2022-10-12T03:34:19.636Z,11.80
2022-10-12T03:36:21.441Z,11.79
2022-10-12T03:38:23.405Z,11.75
2022-10-12T03:40:25.219Z,11.73
2022-10-12T03:42:26.760Z,11.72
2022-10-12T03:44:28.283Z,11.71
2022-10-12T03:46:29.864Z,11.69
2022-10-12T03:48:31.516Z,11.68
2022-10-12T03:50:35.057Z,11.65
2022-10-12T03:52:36.813Z,11.61
2022-10-12T03:54:38.584Z,11.57
2022-10-12T03:56:40.702Z,11.55
2022-10-12T03:58:42.237Z,11.54
2022-10-12T04:00:43.789Z,11.54
2022-10-12T04:02:45.376Z,11.54
2022-10-12T04:04:46.884Z,11.52
2022-10-12T04:06:48.710Z,11.51
2022-10-12T04:08:51.094Z,11.49
2022-10-12T04:10:52.924Z,11.48
2022-10-12T04:12:54.402Z,11.47
2022-10-12T04:14:55.861Z,11.46
2022-10-12T04:16:57.439Z,11.46
2022-10-12T04:18:58.922Z,11.45
2022-10-12T04:21:01.252Z,11.43
2022-10-12T04:23:02.961Z,11.43
2022-10-12T04:25:04.849Z,11.43
2022-10-12T04:27:06.603Z,11.43
2022-10-12T04:29:08.158Z,11.42
2022-10-12T04:31:09.993Z,11.40
2022-10-12T04:33:11.856Z,11.39
2022-10-12T04:35:13.841Z,11.37
2022-10-12T04:37:15.401Z,11.34
2022-10-12T04:39:17.141Z,11.33
2022-10-12T04:41:19.913Z,11.31
2022-10-12T04:43:21.582Z,11.29
2022-10-12T04:45:23.240Z,11.28
2022-10-12T04:47:27.976Z,11.26
2022-10-12T04:49:29.738Z,11.23
2022-10-12T04:51:32.140Z,11.18
2022-10-12T04:53:33.797Z,11.16
2022-10-12T04:55:37.702Z,11.15
2022-10-12T04:57:41.956Z,11.16
2022-10-12T04:59:43.692Z,11.14
2022-10-12T05:01:45.507Z,11.15
2022-10-12T05:03:47.190Z,11.14
2022-10-12T05:05:48.991Z,11.14
2022-10-12T05:07:50.868Z,11.13
2022-10-12T05:09:52.400Z,11.13
2022-10-12T05:11:54.053Z,11.13
2022-10-12T05:13:55.681Z,11.13
2022-10-12T05:15:57.578Z,11.14
2022-10-12T05:17:59.475Z,11.16
2022-10-12T05:20:00.980Z,11.17
2022-10-12T05:22:02.733Z,11.18
2022-10-12T05:24:04.641Z,11.21
2022-10-12T05:26:09.238Z,11.23
2022-10-12T05:28:10.972Z,11.26
2022-10-12T05:30:13.061Z,11.27
2022-10-12T05:32:15.563Z,11.29
2022-10-12T05:34:17.089Z,11.30
2022-10-12T05:36:18.811Z,11.32
2022-10-12T05:38:20.460Z,11.34
2022-10-12T05:40:22.042Z,11.34
2022-10-12T05:42:23.550Z,11.36
2022-10-12T05:44:25.026Z,11.38
2022-10-12T05:46:29.371Z,11.38
2022-10-12T05:48:31.289Z,11.40
2022-10-12T05:50:33.027Z,11.41
2022-10-12T05:52:34.966Z,11.43
2022-10-12T05:54:36.567Z,11.42
2022-10-12T05:56:38.321Z,11.44
2022-10-12T05:58:39.885Z,11.45
2022-10-12T06:00:41.424Z,11.45
2022-10-12T06:02:43.096Z,11.47
2022-10-12T06:04:44.936Z,11.48
2022-10-12T06:06:46.613Z,11.50
2022-10-12T06:08:48.223Z,11.51
2022-10-12T06:10:51.672Z,11.52
2022-10-12T06:12:53.279Z,11.53
2022-10-12T06:14:55.218Z,11.53
2022-10-12T06:16:58.284Z,11.55
2022-10-12T06:18:59.745Z,11.55
2022-10-12T06:21:21.505Z,11.58
2022-10-12T06:23:23.006Z,11.58
2022-10-12T06:25:24.683Z,11.60
2022-10-12T06:27:26.340Z,11.62
2022-10-12T06:29:28.062Z,11.63
2022-10-12T06:31:29.655Z,11.66
2022-10-12T06:33:31.161Z,11.67
2022-10-12T06:35:33.365Z,11.69
2022-10-12T06:37:49.670Z,11.71
2022-10-12T06:39:52.291Z,11.75
2022-10-12T06:41:54.673Z,11.77
2022-10-12T06:43:56.169Z,11.80
2022-10-12T06:46:02.034Z,11.83
2022-10-12T06:48:04.886Z,11.85
2022-10-12T06:50:08.921Z,11.88
2022-10-12T06:52:10.557Z,11.91
2022-10-12T06:54:12.161Z,11.97
2022-10-12T06:56:14.347Z,12.02
2022-10-12T06:58:15.890Z,12.07
2022-10-12T07:00:17.790Z,12.13
2022-10-12T07:02:19.602Z,12.18
2022-10-12T07:04:21.233Z,12.24
2022-10-12T07:06:23.025Z,12.29
2022-10-12T07:08:25.033Z,12.34
2022-10-12T07:10:27.134Z,12.39
2022-10-12T07:12:28.829Z,12.43
2022-10-12T07:14:30.281Z,12.48
2022-10-12T07:16:32.147Z,12.54
2022-10-12T07:18:34.240Z,12.59
2022-10-12T07:20:35.909Z,12.63
2022-10-12T07:22:37.755Z,12.67
2022-10-12T07:24:39.269Z,12.72
2022-10-12T07:26:41.058Z,12.78
2022-10-12T07:28:42.818Z,12.85
2022-10-12T07:30:45.180Z,12.90
2022-10-12T07:32:47.792Z,12.98
2022-10-12T07:34:49.452Z,13.05
2022-10-12T07:36:59.789Z,13.13
2022-10-12T07:39:01.935Z,13.20
2022-10-12T07:41:04.638Z,13.28
2022-10-12T07:43:15.581Z,13.35
2022-10-12T07:45:18.209Z,13.44
2022-10-12T07:47:22.713Z,13.52
2022-10-12T07:49:24.204Z,13.60
2022-10-12T07:51:25.928Z,13.70
2022-10-12T07:53:27.525Z,13.77
2022-10-12T07:55:32.310Z,13.85
2022-10-12T07:57:34.040Z,13.94
2022-10-12T07:59:35.737Z,14.01
2022-10-12T08:01:37.566Z,14.08
2022-10-12T08:03:41.810Z,14.15
2022-10-12T08:05:43.653Z,14.22
2022-10-12T08:07:45.297Z,14.29
2022-10-12T08:09:48.643Z,14.36
2022-10-12T08:11:50.489Z,14.41
2022-10-12T08:13:52.114Z,14.48
2022-10-12T08:15:53.706Z,14.54
2022-10-12T08:17:55.389Z,14.61
2022-10-12T08:19:56.912Z,14.68
2022-10-12T08:21:58.843Z,14.74
2022-10-12T08:24:00.901Z,14.83
2022-10-12T08:26:03.523Z,14.92
2022-10-12T08:28:05.870Z,15.00
2022-10-12T08:30:08.278Z,15.05
2022-10-12T08:32:09.939Z,15.16
2022-10-12T08:34:11.500Z,15.25
2022-10-12T08:36:14.368Z,15.35
2022-10-12T08:38:16.461Z,15.45
2022-10-12T08:40:25.819Z,15.55
2022-10-12T08:42:44.928Z,15.63
2022-10-12T08:45:06.657Z,15.75
2022-10-12T08:47:17.841Z,15.86
2022-10-12T08:49:24.200Z,15.99
2022-10-12T08:51:30.949Z,16.14
2022-10-12T08:53:43.574Z,16.32
2022-10-12T08:55:46.870Z,16.53
2022-10-12T08:57:50.049Z,16.76
2022-10-12T08:59:52.217Z,16.99
2022-10-12T09:02:34.533Z,17.29
2022-10-12T09:05:15.288Z,17.58
2022-10-12T09:07:42.191Z,17.90
2022-10-12T09:10:08.095Z,18.21
2022-10-12T09:12:35.928Z,18.51
2022-10-12T09:14:40.294Z,18.80
2022-10-12T09:16:46.291Z,19.07
2022-10-12T09:18:53.875Z,19.31
2022-10-12T09:20:57.082Z,19.58
2022-10-12T09:23:04.933Z,19.83
2022-10-12T09:25:14.463Z,20.08
2022-10-12T09:27:19.699Z,20.32
2022-10-12T09:29:28.247Z,20.55
2022-10-12T09:31:52.115Z,20.77
2022-10-12T09:33:57.503Z,20.96
2022-10-12T09:35:59.296Z,21.14
2022-10-12T09:38:01.782Z,21.28
2022-10-12T09:40:04.259Z,21.44
2022-10-12T09:42:06.063Z,21.61
2022-10-12T09:44:15.357Z,21.76
2022-10-12T09:46:48.286Z,21.91
2022-10-12T09:49:00.291Z,22.10
2022-10-12T09:51:03.929Z,22.25
2022-10-12T09:53:36.047Z,22.39
2022-10-12T09:55:37.901Z,22.55
2022-10-12T09:57:41.917Z,22.67
2022-10-12T09:59:45.006Z,22.77
2022-10-12T10:02:13.932Z,22.89
2022-10-12T10:04:23.160Z,23.01
2022-10-12T10:06:26.102Z,23.11
2022-10-12T10:08:27.986Z,23.19
2022-10-12T10:10:30.832Z,23.27
2022-10-12T10:12:32.928Z,23.36
2022-10-12T10:14:35.938Z,23.44
2022-10-12T10:16:49.187Z,23.51
2022-10-12T10:18:54.056Z,23.59
2022-10-12T10:21:00.849Z,23.67
2022-10-12T10:23:03.927Z,23.74
2022-10-12T10:25:06.766Z,23.82
2022-10-12T10:27:29.372Z,23.89
2022-10-12T10:29:38.956Z,23.96
2022-10-12T10:31:40.773Z,24.04
2022-10-12T10:33:44.033Z,24.10
2022-10-12T10:35:58.962Z,24.17
2022-10-12T10:38:00.965Z,24.21
2022-10-12T10:40:03.298Z,24.25
2022-10-12T10:42:24.838Z,24.24
2022-10-12T10:44:33.236Z,24.28
2022-10-12T10:46:37.337Z,24.31
2022-10-12T10:48:53.277Z,24.33
2022-10-12T10:51:02.097Z,24.37
2022-10-12T10:53:18.632Z,24.40
2022-10-12T10:55:23.442Z,24.45
2022-10-12T10:57:28.114Z,24.49
2022-10-12T10:59:39.454Z,24.54
2022-10-12T11:01:51.470Z,24.57
2022-10-12T11:04:07.918Z,24.61
2022-10-12T11:06:32.488Z,24.66
2022-10-12T11:08:36.176Z,24.72
2022-10-12T11:10:44.999Z,24.76
2022-10-12T11:12:51.866Z,24.81
2022-10-12T11:15:12.889Z,24.87
2022-10-12T11:17:24.081Z,24.92
2022-10-12T11:19:41.115Z,24.96
2022-10-12T11:21:51.853Z,25.00
2022-10-12T11:24:17.365Z,25.03
2022-10-12T11:26:27.760Z,25.08
2022-10-12T11:28:32.662Z,25.13
2022-10-12T11:30:46.392Z,25.17
2022-10-12T11:32:58.145Z,25.23
2022-10-12T11:35:02.693Z,25.26
2022-10-12T11:37:21.334Z,25.31
2022-10-12T11:39:38.274Z,25.36
2022-10-12T11:42:09.723Z,25.41
2022-10-12T11:44:30.395Z,25.45
2022-10-12T11:47:04.452Z,25.50
2022-10-12T11:49:14.758Z,25.54
2022-10-12T11:51:16.345Z,25.58
2022-10-12T11:53:28.617Z,25.62
2022-10-12T11:55:37.672Z,25.69
2022-10-12T11:57:40.102Z,25.75
2022-10-12T11:59:49.810Z,25.80
2022-10-12T12:02:11.207Z,25.85
2022-10-12T12:04:43.351Z,25.92
2022-10-12T12:06:52.158Z,26.00
2022-10-12T12:08:53.824Z,26.05
2022-10-12T12:11:19.463Z,26.09
2022-10-12T12:13:23.833Z,26.14
2022-10-12T12:15:25.424Z,26.19
2022-10-12T12:17:32.212Z,26.24
2022-10-12T12:19:36.762Z,26.29
2022-10-12T12:22:15.841Z,26.30
2022-10-12T12:24:18.721Z,26.33
2022-10-12T12:26:23.405Z,26.34
2022-10-12T12:28:25.231Z,26.36
2022-10-12T12:30:36.716Z,26.38
2022-10-12T12:32:59.450Z,26.40
2022-10-12T12:35:01.311Z,26.45
2022-10-12T12:37:12.799Z,26.49
2022-10-12T12:39:35.154Z,26.53
2022-10-12T12:42:02.033Z,26.57
2022-10-12T12:44:04.666Z,26.62
2022-10-12T12:46:13.229Z,26.65
2022-10-12T12:48:43.853Z,26.66
2022-10-12T12:50:45.729Z,26.72
2022-10-12T12:52:47.431Z,26.76
2022-10-12T12:54:58.256Z,26.80
2022-10-12T12:57:30.291Z,26.82
2022-10-12T12:59:59.261Z,26.85
2022-10-12T13:02:23.782Z,26.89
2022-10-12T13:04:40.085Z,26.91
2022-10-12T13:07:20.066Z,26.93
2022-10-12T13:09:32.826Z,26.95
2022-10-12T13:11:43.625Z,26.98
2022-10-12T13:14:03.264Z,26.97
2022-10-12T13:16:57.106Z,26.98
2022-10-12T13:19:00.758Z,26.97
2022-10-12T13:21:06.695Z,26.95
2022-10-12T13:23:14.930Z,26.95
2022-10-12T13:25:40.212Z,26.94
2022-10-12T13:27:53.565Z,26.93
2022-10-12T13:30:28.309Z,26.92
2022-10-12T13:33:06.492Z,26.90
2022-10-12T13:35:40.409Z,26.90
2022-10-12T13:37:42.141Z,26.91
2022-10-12T13:39:47.326Z,26.90
2022-10-12T13:41:53.465Z,26.87
2022-10-12T13:44:00.656Z,26.86
2022-10-12T13:46:02.789Z,26.85
2022-10-12T13:48:05.102Z,26.82
2022-10-12T13:50:17.056Z,26.76
2022-10-12T13:52:38.883Z,26.72
2022-10-12T13:54:49.143Z,26.69
2022-10-12T13:57:21.297Z,26.63
2022-10-12T13:59:25.478Z,26.62
2022-10-12T14:01:27.707Z,26.57
2022-10-12T14:03:41.634Z,26.53
2022-10-12T14:05:45.685Z,26.50
2022-10-12T14:07:49.504Z,26.45
2022-10-12T14:09:55.335Z,26.41
2022-10-12T14:11:57.409Z,26.35
2022-10-12T14:14:00.651Z,26.32
2022-10-12T14:16:05.390Z,26.28
2022-10-12T14:18:35.466Z,26.21
2022-10-12T14:20:39.177Z,26.15
2022-10-12T14:22:49.620Z,26.09
2022-10-12T14:25:10.636Z,26.02
2022-10-12T14:27:22.890Z,25.97
2022-10-12T14:29:43.124Z,25.92
2022-10-12T14:31:49.722Z,25.86
2022-10-12T14:33:51.364Z,25.81
2022-10-12T14:36:15.317Z,25.73
2022-10-12T14:38:37.368Z,25.66
2022-10-12T14:40:39.540Z,25.62
2022-10-12T14:42:59.522Z,25.54
2022-10-12T14:45:03.935Z,25.49
2022-10-12T14:47:16.429Z,25.41
2022-10-12T14:49:25.035Z,25.34
2022-10-12T14:51:27.082Z,25.25
2022-10-12T14:53:29.657Z,25.19
2022-10-12T14:55:33.556Z,25.12
2022-10-12T14:57:35.302Z,25.05
2022-10-12T14:59:36.886Z,24.97
2022-10-12T15:01:41.819Z,24.91
2022-10-12T15:03:44.936Z,24.83
2022-10-12T15:05:47.135Z,24.76
2022-10-12T15:07:52.472Z,24.68
2022-10-12T15:09:58.613Z,24.59
2022-10-12T15:12:00.309Z,24.52
2022-10-12T15:14:08.117Z,24.43
2022-10-12T15:16:21.993Z,24.33
2022-10-12T15:18:25.226Z,24.25
2022-10-12T15:20:29.907Z,24.16
2022-10-12T15:22:31.622Z,24.07
2022-10-12T15:24:35.590Z,23.98
2022-10-12T15:26:42.081Z,23.90
2022-10-12T15:28:45.205Z,23.82
2022-10-12T15:31:15.319Z,23.73
2022-10-12T15:33:11.463Z,23.63
2022-10-12T15:35:25.590Z,23.53
2022-10-12T15:37:31.146Z,23.46
2022-10-12T15:39:33.130Z,23.37
2022-10-12T15:41:34.889Z,23.28
2022-10-12T15:43:39.593Z,23.19
2022-10-12T15:45:43.788Z,23.10
2022-10-12T15:47:50.332Z,23.02
2022-10-12T15:49:51.909Z,22.94
2022-10-12T15:51:55.031Z,22.84
2022-10-12T15:53:56.855Z,22.75
2022-10-12T15:55:58.431Z,22.68
2022-10-12T15:58:00.517Z,22.58
2022-10-12T16:00:02.571Z,22.50
2022-10-12T16:02:13.763Z,22.41
2022-10-12T16:04:15.772Z,22.33
2022-10-12T16:06:17.651Z,22.24
2022-10-12T16:08:19.242Z,22.17
2022-10-12T16:10:24.886Z,22.08
2022-10-12T16:12:26.954Z,21.99
2022-10-12T16:14:28.818Z,21.93
2022-10-12T16:16:32.279Z,21.84
2022-10-12T16:18:33.989Z,21.77
2022-10-12T16:20:37.578Z,21.69
2022-10-12T16:22:40.398Z,21.59
2022-10-12T16:24:42.295Z,21.51
2022-10-12T16:26:45.134Z,21.44
2022-10-12T16:28:47.313Z,21.37
2022-10-12T16:30:49.917Z,21.29
2022-10-12T16:32:52.298Z,21.22
2022-10-12T16:34:54.115Z,21.15
2022-10-12T16:36:56.192Z,21.08
2022-10-12T16:38:58.107Z,21.00
2022-10-12T16:40:59.842Z,20.95
2022-10-12T16:43:01.633Z,20.87
2022-10-12T16:45:03.721Z,20.80
2022-10-12T16:47:05.790Z,20.73
2022-10-12T16:49:07.513Z,20.67
2022-10-12T16:51:10.553Z,20.61
2022-10-12T16:53:12.335Z,20.54
2022-10-12T16:55:14.342Z,20.48
2022-10-12T16:57:16.380Z,20.43
2022-10-12T16:59:18.361Z,20.37
2022-10-12T17:01:20.137Z,20.31
2022-10-12T17:03:21.936Z,20.24
2022-10-12T17:05:23.691Z,20.19
2022-10-12T17:07:26.095Z,20.14
2022-10-12T17:09:28.192Z,20.09
2022-10-12T17:11:29.833Z,20.05
2022-10-12T17:13:32.845Z,20.00
2022-10-12T17:15:38.566Z,19.94
2022-10-12T17:17:40.200Z,19.88
2022-10-12T17:19:41.973Z,19.84
2022-10-12T17:21:45.020Z,19.80
2022-10-12T17:23:46.685Z,19.74
2022-10-12T17:25:49.126Z,19.72
2022-10-12T17:27:50.644Z,19.66
2022-10-12T17:29:52.449Z,19.62
2022-10-12T17:31:55.321Z,19.57
2022-10-12T17:33:58.081Z,19.53
2022-10-12T17:35:59.515Z,19.47
2022-10-12T17:38:01.207Z,19.45
2022-10-12T17:40:03.681Z,19.40
2022-10-12T17:42:06.459Z,19.36
2022-10-12T17:44:08.618Z,19.32
2022-10-12T17:46:10.248Z,19.28
2022-10-12T17:48:14.406Z,19.23
2022-10-12T17:50:17.834Z,19.19
2022-10-12T17:52:19.560Z,19.13
2022-10-12T17:54:22.432Z,19.09
2022-10-12T17:56:24.074Z,19.06
2022-10-12T17:58:25.569Z,18.99
2022-10-12T18:00:27.523Z,18.95
2022-10-12T18:02:29.616Z,18.91
2022-10-12T18:04:31.293Z,18.86
2022-10-12T18:06:33.866Z,18.84
2022-10-12T18:08:35.966Z,18.79
2022-10-12T18:10:41.585Z,18.75
2022-10-12T18:12:45.158Z,18.69
2022-10-12T18:14:47.289Z,18.67
2022-10-12T18:16:48.877Z,18.62
2022-10-12T18:18:52.488Z,18.58
2022-10-12T18:20:54.321Z,18.55
2022-10-12T18:22:56.179Z,18.50
2022-10-12T18:24:58.083Z,18.46
2022-10-12T18:26:59.777Z,18.44
2022-10-12T18:29:02.046Z,18.36
2022-10-12T18:31:04.258Z,18.33
2022-10-12T18:33:06.032Z,18.27
2022-10-12T18:35:09.883Z,18.23
2022-10-12T18:37:11.798Z,18.19
2022-10-12T18:39:13.474Z,18.15
2022-10-12T18:41:18.154Z,18.11
2022-10-12T18:43:19.950Z,18.07
2022-10-12T18:45:21.769Z,18.03
2022-10-12T18:47:24.548Z,18.00
2022-10-12T18:49:26.489Z,17.96
2022-10-12T18:51:31.000Z,17.91
2022-10-12T18:53:34.242Z,17.86
2022-10-12T18:55:38.232Z,17.82
2022-10-12T18:57:40.211Z,17.76
2022-10-12T18:59:41.995Z,17.73
2022-10-12T19:01:45.059Z,17.70
2022-10-12T19:03:47.961Z,17.64
2022-10-12T19:05:49.421Z,17.60
2022-10-12T19:07:51.048Z,17.55
2022-10-12T19:09:52.922Z,17.52
2022-10-12T19:11:54.419Z,17.48
2022-10-12T19:14:02.531Z,17.45
2022-10-12T19:16:15.292Z,17.38
2022-10-12T19:18:16.835Z,17.35
2022-10-12T19:20:18.512Z,17.32
2022-10-12T19:22:20.879Z,17.28
2022-10-12T19:24:22.762Z,17.24
2022-10-12T19:26:27.163Z,17.21
2022-10-12T19:28:28.775Z,17.18
2022-10-12T19:30:31.454Z,17.12
2022-10-12T19:32:33.676Z,17.08
2022-10-12T19:34:35.549Z,17.04
2022-10-12T19:36:38.867Z,17.02
2022-10-12T19:38:41.161Z,16.98
2022-10-12T19:40:43.400Z,16.94
2022-10-12T19:42:47.714Z,16.91
2022-10-12T19:44:49.707Z,16.88
2022-10-12T19:46:53.511Z,16.84
2022-10-12T19:48:57.552Z,16.81
2022-10-12T19:51:01.619Z,16.76
2022-10-12T19:53:03.575Z,16.72
2022-10-12T19:55:05.906Z,16.70
2022-10-12T19:57:07.609Z,16.68
2022-10-12T19:59:09.520Z,16.65
2022-10-12T20:01:19.833Z,16.61
2022-10-12T20:03:21.812Z,16.59
2022-10-12T20:05:23.365Z,16.55
2022-10-12T20:07:25.118Z,16.53
2022-10-12T20:09:26.768Z,16.49
2022-10-12T20:11:28.946Z,16.48
2022-10-12T20:13:30.798Z,16.44
2022-10-12T20:15:32.483Z,16.42
2022-10-12T20:17:34.155Z,16.40
2022-10-12T20:19:36.851Z,16.35
2022-10-12T20:21:38.458Z,16.33
2022-10-12T20:23:42.710Z,16.31
2022-10-12T20:25:47.100Z,16.27
2022-10-12T20:27:49.272Z,16.25
2022-10-12T20:29:51.074Z,16.23
2022-10-12T20:31:52.718Z,16.19
2022-10-12T20:33:56.132Z,16.16
2022-10-12T20:35:58.145Z,16.12
2022-10-12T20:38:00.166Z,16.10
2022-10-12T20:40:02.014Z,16.07
2022-10-12T20:42:03.640Z,16.04
2022-10-12T20:44:05.457Z,16.01
2022-10-12T20:46:10.773Z,15.94
2022-10-12T20:48:12.299Z,15.93
2022-10-12T20:50:14.805Z,15.89
2022-10-12T20:52:16.752Z,15.87
2022-10-12T20:54:19.078Z,15.83
2022-10-12T20:56:20.735Z,15.78
2022-10-12T20:58:26.969Z,15.77
2022-10-12T21:00:29.438Z,15.75
2022-10-12T21:02:31.174Z,15.73
2022-10-12T21:04:38.173Z,15.71
2022-10-12T21:06:42.621Z,15.68
2022-10-12T21:08:44.818Z,15.64
2022-10-12T21:10:47.421Z,15.63
2022-10-12T21:12:48.916Z,15.60
2022-10-12T21:14:50.533Z,15.59
2022-10-12T21:16:52.919Z,15.55
2022-10-12T21:18:55.236Z,15.53
2022-10-12T21:20:58.852Z,15.51
2022-10-12T21:23:00.391Z,15.47
2022-10-12T21:25:02.005Z,15.45
2022-10-12T21:27:04.791Z,15.43
2022-10-12T21:29:06.745Z,15.41
2022-10-12T21:31:09.052Z,15.37
2022-10-12T21:33:10.576Z,15.35
2022-10-12T21:35:12.545Z,15.32
2022-10-12T21:37:14.245Z,15.31
2022-10-12T21:39:17.301Z,15.26
2022-10-12T21:41:21.901Z,15.24
2022-10-12T21:43:23.566Z,15.21
2022-10-12T21:45:25.058Z,15.20
2022-10-12T21:47:26.521Z,15.17
2022-10-12T21:49:28.309Z,15.14
2022-10-12T21:51:31.344Z,15.11
2022-10-12T21:53:36.563Z,15.06
2022-10-12T21:55:38.246Z,15.03
2022-10-12T21:57:39.740Z,15.01
2022-10-12T21:59:41.751Z,14.99
2022-10-12T22:01:43.423Z,14.96
2022-10-12T22:03:45.961Z,14.95
2022-10-12T22:05:47.596Z,14.93
2022-10-12T22:07:49.251Z,14.91
2022-10-12T22:09:50.790Z,14.88
2022-10-12T22:11:54.158Z,14.86
2022-10-12T22:14:01.299Z,14.84
2022-10-12T22:16:10.163Z,14.81
2022-10-12T22:18:11.874Z,14.80
2022-10-12T22:20:13.453Z,14.78
2022-10-12T22:22:20.387Z,14.75
2022-10-12T22:24:22.338Z,14.72
2022-10-12T22:26:24.534Z,14.71
2022-10-12T22:28:30.266Z,14.66
2022-10-12T22:30:32.129Z,14.63
2022-10-12T22:32:34.153Z,14.61
2022-10-12T22:34:35.937Z,14.60
2022-10-12T22:36:37.709Z,14.58
2022-10-12T22:38:41.875Z,14.53
2022-10-12T22:40:57.581Z,14.51
2022-10-12T22:42:59.338Z,14.49
2022-10-12T22:45:01.061Z,14.48
2022-10-12T22:47:02.821Z,14.46
2022-10-12T22:49:04.545Z,14.44
2022-10-12T22:51:07.008Z,14.41
2022-10-12T22:53:08.598Z,14.40
2022-10-12T22:55:10.339Z,14.37
2022-10-12T22:57:12.505Z,14.36
2022-10-12T22:59:15.617Z,14.33
2022-10-12T23:01:17.622Z,14.29
2022-10-12T23:03:19.239Z,14.26
2022-10-12T23:05:21.386Z,14.27
2022-10-12T23:07:22.913Z,14.27
2022-10-12T23:09:24.571Z,14.26
2022-10-12T23:11:28.629Z,14.23
2022-10-12T23:13:30.847Z,14.23
2022-10-12T23:15:35.278Z,14.20
2022-10-12T23:17:36.876Z,14.19
2022-10-12T23:19:38.669Z,14.16
2022-10-12T23:21:41.170Z,14.14
2022-10-12T23:23:44.253Z,14.11
2022-10-12T23:25:45.825Z,14.09
2022-10-12T23:27:47.452Z,14.07
2022-10-12T23:29:49.529Z,14.04
2022-10-12T23:31:51.209Z,14.04
2022-10-12T23:34:01.892Z,14.03
2022-10-12T23:36:12.087Z,14.02
2022-10-12T23:38:13.657Z,13.98
2022-10-12T23:40:15.553Z,13.96
2022-10-12T23:42:17.607Z,13.95
2022-10-12T23:44:19.515Z,13.92
2022-10-12T23:46:21.201Z,13.91
2022-10-12T23:48:23.621Z,13.89
2022-10-12T23:50:25.316Z,13.84
2022-10-12T23:52:27.023Z,13.82
2022-10-12T23:54:28.935Z,13.81
2022-10-12T23:56:30.596Z,13.80
2022-10-12T23:58:35.919Z,13.77
